sensor_id;sensor_type;location;lat;lon;timestamp;temperature;humidity
83104;DHT22;72975;48.134;11.630;2023-10-31T00:00:56;10.70;94.20
83104;DHT22;72975;48.134;11.630;2023-10-31T00:03:26;10.60;94.30
83104;DHT22;72975;48.134;11.630;2023-10-31T00:05:56;10.60;93.70
83104;DHT22;72975;48.134;11.630;2023-10-31T00:08:23;10.50;93.50
83104;DHT22;72975;48.134;11.630;2023-10-31T00:10:51;10.40;93.30
83104;DHT22;72975;48.134;11.630;2023-10-31T00:13:17;10.40;93.80
83104;DHT22;72975;48.134;11.630;2023-10-31T00:15:44;10.40;93.90
83104;DHT22;72975;48.134;11.630;2023-10-31T00:18:12;10.20;93.30
83104;DHT22;72975;48.134;11.630;2023-10-31T00:20:39;10.20;93.40
83104;DHT22;72975;48.134;11.630;2023-10-31T00:23:06;10.10;93.40
83104;DHT22;72975;48.134;11.630;2023-10-31T00:25:34;10.10;93.20
83104;DHT22;72975;48.134;11.630;2023-10-31T00:28:03;10.10;92.30
83104;DHT22;72975;48.134;11.630;2023-10-31T00:30:33;10.00;93.10
83104;DHT22;72975;48.134;11.630;2023-10-31T00:33:02;9.90;93.30
83104;DHT22;72975;48.134;11.630;2023-10-31T00:35:29;9.90;93.10
83104;DHT22;72975;48.134;11.630;2023-10-31T00:37:57;9.90;92.60
83104;DHT22;72975;48.134;11.630;2023-10-31T00:40:24;9.90;93.00
83104;DHT22;72975;48.134;11.630;2023-10-31T00:42:51;9.90;92.90
83104;DHT22;72975;48.134;11.630;2023-10-31T00:45:18;9.80;92.90
83104;DHT22;72975;48.134;11.630;2023-10-31T00:47:45;9.80;93.20
83104;DHT22;72975;48.134;11.630;2023-10-31T00:50:12;9.80;93.20
83104;DHT22;72975;48.134;11.630;2023-10-31T00:52:39;9.80;92.90
83104;DHT22;72975;48.134;11.630;2023-10-31T00:55:06;9.70;93.10
83104;DHT22;72975;48.134;11.630;2023-10-31T00:57:33;9.80;93.60
83104;DHT22;72975;48.134;11.630;2023-10-31T00:59:59;9.70;93.00
83104;DHT22;72975;48.134;11.630;2023-10-31T01:02:26;9.70;93.50
83104;DHT22;72975;48.134;11.630;2023-10-31T01:04:53;9.70;93.90
83104;DHT22;72975;48.134;11.630;2023-10-31T01:07:20;9.70;93.60
83104;DHT22;72975;48.134;11.630;2023-10-31T01:09:49;9.60;93.50
83104;DHT22;72975;48.134;11.630;2023-10-31T01:12:16;9.70;93.50
83104;DHT22;72975;48.134;11.630;2023-10-31T01:14:43;9.60;93.90
83104;DHT22;72975;48.134;11.630;2023-10-31T01:17:13;9.60;93.40
83104;DHT22;72975;48.134;11.630;2023-10-31T01:19:40;9.60;93.40
83104;DHT22;72975;48.134;11.630;2023-10-31T01:22:10;9.60;93.80
83104;DHT22;72975;48.134;11.630;2023-10-31T01:24:38;9.60;94.10
83104;DHT22;72975;48.134;11.630;2023-10-31T01:27:05;9.60;94.20
83104;DHT22;72975;48.134;11.630;2023-10-31T01:29:32;9.60;94.20
83104;DHT22;72975;48.134;11.630;2023-10-31T01:32:01;9.60;93.90
83104;DHT22;72975;48.134;11.630;2023-10-31T01:34:35;9.60;93.90
83104;DHT22;72975;48.134;11.630;2023-10-31T01:37:02;9.60;93.70
83104;DHT22;72975;48.134;11.630;2023-10-31T01:39:29;9.60;94.10
83104;DHT22;72975;48.134;11.630;2023-10-31T01:41:56;9.70;94.00
83104;DHT22;72975;48.134;11.630;2023-10-31T01:44:23;9.60;94.20
83104;DHT22;72975;48.134;11.630;2023-10-31T01:46:50;9.60;94.10
83104;DHT22;72975;48.134;11.630;2023-10-31T01:49:16;9.60;94.00
83104;DHT22;72975;48.134;11.630;2023-10-31T01:51:45;9.60;94.20
83104;DHT22;72975;48.134;11.630;2023-10-31T01:54:13;9.60;93.70
83104;DHT22;72975;48.134;11.630;2023-10-31T01:56:42;9.70;93.30
83104;DHT22;72975;48.134;11.630;2023-10-31T01:59:10;9.60;93.30
83104;DHT22;72975;48.134;11.630;2023-10-31T02:01:38;9.60;93.50
83104;DHT22;72975;48.134;11.630;2023-10-31T02:04:08;9.60;93.70
83104;DHT22;72975;48.134;11.630;2023-10-31T02:06:36;9.60;93.10
83104;DHT22;72975;48.134;11.630;2023-10-31T02:09:03;9.70;93.10
83104;DHT22;72975;48.134;11.630;2023-10-31T02:11:32;9.70;92.70
83104;DHT22;72975;48.134;11.630;2023-10-31T02:14:00;9.60;92.90
83104;DHT22;72975;48.134;11.630;2023-10-31T02:16:27;9.60;92.60
83104;DHT22;72975;48.134;11.630;2023-10-31T02:18:54;9.50;92.60
83104;DHT22;72975;48.134;11.630;2023-10-31T02:21:21;9.60;93.10
83104;DHT22;72975;48.134;11.630;2023-10-31T02:24:01;9.50;93.80
83104;DHT22;72975;48.134;11.630;2023-10-31T02:26:32;9.50;93.70
83104;DHT22;72975;48.134;11.630;2023-10-31T02:29:01;9.50;93.50
83104;DHT22;72975;48.134;11.630;2023-10-31T02:31:29;9.40;94.10
83104;DHT22;72975;48.134;11.630;2023-10-31T02:33:55;9.50;93.90
83104;DHT22;72975;48.134;11.630;2023-10-31T02:36:22;9.40;94.10
83104;DHT22;72975;48.134;11.630;2023-10-31T02:38:50;9.40;93.90
83104;DHT22;72975;48.134;11.630;2023-10-31T02:41:17;9.40;93.60
83104;DHT22;72975;48.134;11.630;2023-10-31T02:43:43;9.40;93.30
83104;DHT22;72975;48.134;11.630;2023-10-31T02:46:10;9.30;93.00
83104;DHT22;72975;48.134;11.630;2023-10-31T02:48:41;9.30;93.10
83104;DHT22;72975;48.134;11.630;2023-10-31T02:51:11;9.30;93.30
83104;DHT22;72975;48.134;11.630;2023-10-31T02:53:38;9.30;93.20
83104;DHT22;72975;48.134;11.630;2023-10-31T02:56:05;9.20;93.30
83104;DHT22;72975;48.134;11.630;2023-10-31T02:58:32;9.20;93.30
83104;DHT22;72975;48.134;11.630;2023-10-31T03:00:59;9.30;92.60
83104;DHT22;72975;48.134;11.630;2023-10-31T03:03:26;9.30;92.50
83104;DHT22;72975;48.134;11.630;2023-10-31T03:05:53;9.30;92.10
83104;DHT22;72975;48.134;11.630;2023-10-31T03:08:20;9.20;92.70
83104;DHT22;72975;48.134;11.630;2023-10-31T03:10:49;9.20;92.80
83104;DHT22;72975;48.134;11.630;2023-10-31T03:13:19;9.20;92.90
83104;DHT22;72975;48.134;11.630;2023-10-31T03:15:48;9.30;92.40
83104;DHT22;72975;48.134;11.630;2023-10-31T03:18:18;9.20;93.00
83104;DHT22;72975;48.134;11.630;2023-10-31T03:20:45;9.20;92.80
83104;DHT22;72975;48.134;11.630;2023-10-31T03:23:13;9.20;92.80
83104;DHT22;72975;48.134;11.630;2023-10-31T03:25:41;9.10;93.00
83104;DHT22;72975;48.134;11.630;2023-10-31T03:28:20;9.20;92.50
83104;DHT22;72975;48.134;11.630;2023-10-31T03:30:50;9.10;93.00
83104;DHT22;72975;48.134;11.630;2023-10-31T03:33:18;9.10;92.40
83104;DHT22;72975;48.134;11.630;2023-10-31T03:35:45;9.10;92.80
83104;DHT22;72975;48.134;11.630;2023-10-31T03:38:12;9.10;92.40
83104;DHT22;72975;48.134;11.630;2023-10-31T03:40:39;9.10;91.70
83104;DHT22;72975;48.134;11.630;2023-10-31T03:43:08;9.10;91.60
83104;DHT22;72975;48.134;11.630;2023-10-31T03:45:40;9.10;92.10
83104;DHT22;72975;48.134;11.630;2023-10-31T03:48:09;9.20;91.90
83104;DHT22;72975;48.134;11.630;2023-10-31T03:50:39;9.10;91.90
83104;DHT22;72975;48.134;11.630;2023-10-31T03:53:07;9.20;91.70
83104;DHT22;72975;48.134;11.630;2023-10-31T03:55:34;9.20;91.90
83104;DHT22;72975;48.134;11.630;2023-10-31T03:58:01;9.20;91.60
83104;DHT22;72975;48.134;11.630;2023-10-31T04:00:28;9.20;90.90
83104;DHT22;72975;48.134;11.630;2023-10-31T04:02:56;9.20;91.20
83104;DHT22;72975;48.134;11.630;2023-10-31T04:05:24;9.20;91.40
83104;DHT22;72975;48.134;11.630;2023-10-31T04:07:51;9.20;91.10
83104;DHT22;72975;48.134;11.630;2023-10-31T04:10:19;9.20;91.00
83104;DHT22;72975;48.134;11.630;2023-10-31T04:12:46;9.20;90.50
83104;DHT22;72975;48.134;11.630;2023-10-31T04:15:15;9.20;90.50
83104;DHT22;72975;48.134;11.630;2023-10-31T04:17:44;9.30;90.50
83104;DHT22;72975;48.134;11.630;2023-10-31T04:20:22;9.30;89.10
83104;DHT22;72975;48.134;11.630;2023-10-31T04:22:59;9.30;88.60
83104;DHT22;72975;48.134;11.630;2023-10-31T04:25:35;9.30;88.30
83104;DHT22;72975;48.134;11.630;2023-10-31T04:28:03;9.30;88.60
83104;DHT22;72975;48.134;11.630;2023-10-31T04:30:34;9.30;88.40
83104;DHT22;72975;48.134;11.630;2023-10-31T04:33:05;9.30;88.20
83104;DHT22;72975;48.134;11.630;2023-10-31T04:35:33;9.30;86.40
83104;DHT22;72975;48.134;11.630;2023-10-31T04:38:02;9.30;86.90
83104;DHT22;72975;48.134;11.630;2023-10-31T04:40:29;9.30;86.30
83104;DHT22;72975;48.134;11.630;2023-10-31T04:42:56;9.40;86.50
83104;DHT22;72975;48.134;11.630;2023-10-31T04:45:26;9.40;85.50
83104;DHT22;72975;48.134;11.630;2023-10-31T04:48:00;9.40;86.40
83104;DHT22;72975;48.134;11.630;2023-10-31T04:50:27;9.30;86.20
83104;DHT22;72975;48.134;11.630;2023-10-31T04:52:55;9.30;86.50
83104;DHT22;72975;48.134;11.630;2023-10-31T04:55:32;9.30;87.00
83104;DHT22;72975;48.134;11.630;2023-10-31T04:57:59;9.30;87.10
83104;DHT22;72975;48.134;11.630;2023-10-31T05:00:31;9.30;87.60
83104;DHT22;72975;48.134;11.630;2023-10-31T05:02:59;9.30;87.40
83104;DHT22;72975;48.134;11.630;2023-10-31T05:05:28;9.30;87.30
83104;DHT22;72975;48.134;11.630;2023-10-31T05:07:55;9.20;87.70
83104;DHT22;72975;48.134;11.630;2023-10-31T05:10:22;9.20;87.80
83104;DHT22;72975;48.134;11.630;2023-10-31T05:12:51;9.20;88.10
83104;DHT22;72975;48.134;11.630;2023-10-31T05:15:18;9.10;88.50
83104;DHT22;72975;48.134;11.630;2023-10-31T05:17:47;9.20;88.80
83104;DHT22;72975;48.134;11.630;2023-10-31T05:20:16;9.20;89.00
83104;DHT22;72975;48.134;11.630;2023-10-31T05:22:43;9.20;89.00
83104;DHT22;72975;48.134;11.630;2023-10-31T05:25:13;9.20;89.10
83104;DHT22;72975;48.134;11.630;2023-10-31T05:27:49;9.20;89.80
83104;DHT22;72975;48.134;11.630;2023-10-31T05:30:21;9.20;90.10
83104;DHT22;72975;48.134;11.630;2023-10-31T05:32:55;9.10;90.50
83104;DHT22;72975;48.134;11.630;2023-10-31T05:35:27;9.10;90.70
83104;DHT22;72975;48.134;11.630;2023-10-31T05:37:54;9.10;90.90
83104;DHT22;72975;48.134;11.630;2023-10-31T05:40:26;9.10;91.10
83104;DHT22;72975;48.134;11.630;2023-10-31T05:42:57;9.10;91.10
83104;DHT22;72975;48.134;11.630;2023-10-31T05:45:25;9.00;91.10
83104;DHT22;72975;48.134;11.630;2023-10-31T05:47:52;9.00;91.20
83104;DHT22;72975;48.134;11.630;2023-10-31T05:50:21;9.00;91.20
83104;DHT22;72975;48.134;11.630;2023-10-31T05:52:55;9.10;91.40
83104;DHT22;72975;48.134;11.630;2023-10-31T05:55:23;9.10;91.60
83104;DHT22;72975;48.134;11.630;2023-10-31T05:57:54;9.10;91.30
83104;DHT22;72975;48.134;11.630;2023-10-31T06:00:29;9.10;91.80
83104;DHT22;72975;48.134;11.630;2023-10-31T06:03:05;9.10;91.60
83104;DHT22;72975;48.134;11.630;2023-10-31T06:05:38;9.20;91.30
83104;DHT22;72975;48.134;11.630;2023-10-31T06:08:07;9.20;91.80
83104;DHT22;72975;48.134;11.630;2023-10-31T06:10:37;9.10;91.80
83104;DHT22;72975;48.134;11.630;2023-10-31T06:13:07;9.10;91.60
83104;DHT22;72975;48.134;11.630;2023-10-31T06:15:39;9.20;92.20
83104;DHT22;72975;48.134;11.630;2023-10-31T06:18:11;9.10;91.80
83104;DHT22;72975;48.134;11.630;2023-10-31T06:20:43;9.20;91.00
83104;DHT22;72975;48.134;11.630;2023-10-31T06:23:30;9.20;91.50
83104;DHT22;72975;48.134;11.630;2023-10-31T06:26:04;9.20;91.60
83104;DHT22;72975;48.134;11.630;2023-10-31T06:28:37;9.30;91.70
83104;DHT22;72975;48.134;11.630;2023-10-31T06:31:51;9.20;91.40
83104;DHT22;72975;48.134;11.630;2023-10-31T06:34:34;9.20;91.50
83104;DHT22;72975;48.134;11.630;2023-10-31T06:37:29;9.20;91.90
83104;DHT22;72975;48.134;11.630;2023-10-31T06:40:00;9.20;92.00
83104;DHT22;72975;48.134;11.630;2023-10-31T06:42:30;9.30;91.50
83104;DHT22;72975;48.134;11.630;2023-10-31T06:45:07;9.30;90.80
83104;DHT22;72975;48.134;11.630;2023-10-31T06:47:35;9.30;91.20
83104;DHT22;72975;48.134;11.630;2023-10-31T06:50:03;9.30;91.50
83104;DHT22;72975;48.134;11.630;2023-10-31T06:52:36;9.20;91.70
83104;DHT22;72975;48.134;11.630;2023-10-31T06:55:11;9.20;91.60
83104;DHT22;72975;48.134;11.630;2023-10-31T06:57:41;9.10;91.60
83104;DHT22;72975;48.134;11.630;2023-10-31T07:00:15;9.20;92.10
83104;DHT22;72975;48.134;11.630;2023-10-31T07:02:51;9.20;90.50
83104;DHT22;72975;48.134;11.630;2023-10-31T07:05:36;9.30;91.50
83104;DHT22;72975;48.134;11.630;2023-10-31T07:08:04;9.20;91.70
83104;DHT22;72975;48.134;11.630;2023-10-31T07:10:34;9.20;91.70
83104;DHT22;72975;48.134;11.630;2023-10-31T07:13:02;9.30;91.10
83104;DHT22;72975;48.134;11.630;2023-10-31T07:15:35;9.20;90.20
83104;DHT22;72975;48.134;11.630;2023-10-31T07:18:08;9.30;90.30
83104;DHT22;72975;48.134;11.630;2023-10-31T07:20:35;9.30;90.20
83104;DHT22;72975;48.134;11.630;2023-10-31T07:23:02;9.40;89.90
83104;DHT22;72975;48.134;11.630;2023-10-31T07:25:30;9.40;89.10
83104;DHT22;72975;48.134;11.630;2023-10-31T07:27:57;9.40;88.80
83104;DHT22;72975;48.134;11.630;2023-10-31T07:33:46;9.40;88.20
83104;DHT22;72975;48.134;11.630;2023-10-31T07:36:36;9.50;88.30
83104;DHT22;72975;48.134;11.630;2023-10-31T07:39:13;9.50;87.30
83104;DHT22;72975;48.134;11.630;2023-10-31T07:41:42;9.50;87.30
83104;DHT22;72975;48.134;11.630;2023-10-31T07:44:18;9.60;85.50
83104;DHT22;72975;48.134;11.630;2023-10-31T07:46:50;9.60;86.30
83104;DHT22;72975;48.134;11.630;2023-10-31T07:49:23;9.70;85.00
83104;DHT22;72975;48.134;11.630;2023-10-31T07:51:50;9.70;85.30
83104;DHT22;72975;48.134;11.630;2023-10-31T07:54:18;9.60;85.20
83104;DHT22;72975;48.134;11.630;2023-10-31T07:56:53;9.60;84.70
83104;DHT22;72975;48.134;11.630;2023-10-31T07:59:20;9.60;84.90
83104;DHT22;72975;48.134;11.630;2023-10-31T08:01:53;9.60;84.90
83104;DHT22;72975;48.134;11.630;2023-10-31T08:04:33;9.70;84.80
83104;DHT22;72975;48.134;11.630;2023-10-31T08:07:07;9.70;84.20
83104;DHT22;72975;48.134;11.630;2023-10-31T08:09:35;9.70;83.40
83104;DHT22;72975;48.134;11.630;2023-10-31T08:12:03;9.70;83.30
83104;DHT22;72975;48.134;11.630;2023-10-31T08:14:30;9.80;83.70
83104;DHT22;72975;48.134;11.630;2023-10-31T08:16:57;9.70;83.40
83104;DHT22;72975;48.134;11.630;2023-10-31T08:19:24;9.80;82.90
83104;DHT22;72975;48.134;11.630;2023-10-31T08:21:52;9.80;83.00
83104;DHT22;72975;48.134;11.630;2023-10-31T08:24:22;9.80;82.20
83104;DHT22;72975;48.134;11.630;2023-10-31T08:26:55;9.80;82.50
83104;DHT22;72975;48.134;11.630;2023-10-31T08:29:28;9.70;82.10
83104;DHT22;72975;48.134;11.630;2023-10-31T08:32:01;9.70;82.80
83104;DHT22;72975;48.134;11.630;2023-10-31T08:34:44;9.70;82.80
83104;DHT22;72975;48.134;11.630;2023-10-31T08:37:17;9.70;81.90
83104;DHT22;72975;48.134;11.630;2023-10-31T08:39:45;9.70;81.40
83104;DHT22;72975;48.134;11.630;2023-10-31T08:42:20;9.60;82.00
83104;DHT22;72975;48.134;11.630;2023-10-31T08:44:48;9.70;82.00
83104;DHT22;72975;48.134;11.630;2023-10-31T08:47:21;9.70;81.60
83104;DHT22;72975;48.134;11.630;2023-10-31T08:49:56;9.70;81.70
83104;DHT22;72975;48.134;11.630;2023-10-31T08:52:26;9.70;81.30
83104;DHT22;72975;48.134;11.630;2023-10-31T08:54:56;9.70;81.70
83104;DHT22;72975;48.134;11.630;2023-10-31T08:57:25;9.80;81.50
83104;DHT22;72975;48.134;11.630;2023-10-31T08:59:55;9.80;81.70
83104;DHT22;72975;48.134;11.630;2023-10-31T09:02:29;9.80;81.50
83104;DHT22;72975;48.134;11.630;2023-10-31T09:05:27;9.80;81.00
83104;DHT22;72975;48.134;11.630;2023-10-31T09:08:13;9.80;80.80
83104;DHT22;72975;48.134;11.630;2023-10-31T09:10:48;9.70;80.30
83104;DHT22;72975;48.134;11.630;2023-10-31T09:17:02;9.80;80.60
83104;DHT22;72975;48.134;11.630;2023-10-31T09:19:50;9.70;80.60
83104;DHT22;72975;48.134;11.630;2023-10-31T09:22:28;9.80;80.90
83104;DHT22;72975;48.134;11.630;2023-10-31T09:25:30;9.90;80.20
83104;DHT22;72975;48.134;11.630;2023-10-31T09:35:21;9.90;80.70
83104;DHT22;72975;48.134;11.630;2023-10-31T09:39:07;10.00;80.50
83104;DHT22;72975;48.134;11.630;2023-10-31T09:42:19;9.90;79.50
83104;DHT22;72975;48.134;11.630;2023-10-31T09:45:04;10.00;80.30
83104;DHT22;72975;48.134;11.630;2023-10-31T09:48:08;10.00;80.20
83104;DHT22;72975;48.134;11.630;2023-10-31T09:51:10;10.00;79.90
83104;DHT22;72975;48.134;11.630;2023-10-31T09:53:59;10.00;79.70
83104;DHT22;72975;48.134;11.630;2023-10-31T09:56:47;10.00;79.30
83104;DHT22;72975;48.134;11.630;2023-10-31T09:59:43;10.00;79.80
83104;DHT22;72975;48.134;11.630;2023-10-31T10:03:15;10.10;79.40
83104;DHT22;72975;48.134;11.630;2023-10-31T10:06:25;10.10;79.00
83104;DHT22;72975;48.134;11.630;2023-10-31T10:15:29;10.20;78.40
83104;DHT22;72975;48.134;11.630;2023-10-31T10:18:30;10.30;78.40
83104;DHT22;72975;48.134;11.630;2023-10-31T10:21:52;10.30;78.10
83104;DHT22;72975;48.134;11.630;2023-10-31T10:27:44;10.20;78.60
83104;DHT22;72975;48.134;11.630;2023-10-31T10:30:59;10.30;78.10
83104;DHT22;72975;48.134;11.630;2023-10-31T10:33:57;10.30;78.20
83104;DHT22;72975;48.134;11.630;2023-10-31T10:37:10;10.40;77.90
83104;DHT22;72975;48.134;11.630;2023-10-31T10:40:28;10.30;77.70
83104;DHT22;72975;48.134;11.630;2023-10-31T10:43:31;10.40;77.80
83104;DHT22;72975;48.134;11.630;2023-10-31T10:50:02;10.40;78.30
83104;DHT22;72975;48.134;11.630;2023-10-31T10:52:50;10.50;78.70
83104;DHT22;72975;48.134;11.630;2023-10-31T10:55:50;10.50;78.90
83104;DHT22;72975;48.134;11.630;2023-10-31T11:01:42;10.70;79.00
83104;DHT22;72975;48.134;11.630;2023-10-31T11:04:19;10.80;78.30
83104;DHT22;72975;48.134;11.630;2023-10-31T11:06:49;10.70;78.60
83104;DHT22;72975;48.134;11.630;2023-10-31T11:09:25;10.60;78.50
83104;DHT22;72975;48.134;11.630;2023-10-31T11:12:02;10.70;78.60
83104;DHT22;72975;48.134;11.630;2023-10-31T11:14:55;10.80;77.60
83104;DHT22;72975;48.134;11.630;2023-10-31T11:22:47;10.80;77.70
83104;DHT22;72975;48.134;11.630;2023-10-31T11:25:49;10.90;77.10
83104;DHT22;72975;48.134;11.630;2023-10-31T11:28:45;11.00;76.50
83104;DHT22;72975;48.134;11.630;2023-10-31T11:31:58;10.90;76.40
83104;DHT22;72975;48.134;11.630;2023-10-31T11:35:05;11.00;76.50
83104;DHT22;72975;48.134;11.630;2023-10-31T11:38:08;11.00;75.60
83104;DHT22;72975;48.134;11.630;2023-10-31T11:46:21;11.20;75.10
83104;DHT22;72975;48.134;11.630;2023-10-31T11:52:38;11.20;73.60
83104;DHT22;72975;48.134;11.630;2023-10-31T11:58:30;11.40;73.00
83104;DHT22;72975;48.134;11.630;2023-10-31T12:05:20;11.40;72.50
83104;DHT22;72975;48.134;11.630;2023-10-31T12:07:56;11.50;72.10
83104;DHT22;72975;48.134;11.630;2023-10-31T12:10:38;11.50;71.90
83104;DHT22;72975;48.134;11.630;2023-10-31T12:13:56;11.70;71.00
83104;DHT22;72975;48.134;11.630;2023-10-31T12:16:46;11.70;71.30
83104;DHT22;72975;48.134;11.630;2023-10-31T12:19:26;11.70;71.10
83104;DHT22;72975;48.134;11.630;2023-10-31T12:22:31;11.80;70.90
83104;DHT22;72975;48.134;11.630;2023-10-31T12:28:41;12.00;70.00
83104;DHT22;72975;48.134;11.630;2023-10-31T12:31:55;12.00;70.10
83104;DHT22;72975;48.134;11.630;2023-10-31T12:34:34;11.90;70.20
83104;DHT22;72975;48.134;11.630;2023-10-31T12:37:08;11.90;70.90
83104;DHT22;72975;48.134;11.630;2023-10-31T12:39:56;11.80;70.80
83104;DHT22;72975;48.134;11.630;2023-10-31T12:42:43;11.80;71.10
83104;DHT22;72975;48.134;11.630;2023-10-31T12:45:30;11.90;70.30
83104;DHT22;72975;48.134;11.630;2023-10-31T12:54:50;11.80;71.00
83104;DHT22;72975;48.134;11.630;2023-10-31T12:57:40;11.80;71.30
83104;DHT22;72975;48.134;11.630;2023-10-31T13:03:13;11.70;72.20
83104;DHT22;72975;48.134;11.630;2023-10-31T13:09:06;11.50;73.90
83104;DHT22;72975;48.134;11.630;2023-10-31T13:11:49;11.40;74.10
83104;DHT22;72975;48.134;11.630;2023-10-31T13:14:47;11.30;74.80
83104;DHT22;72975;48.134;11.630;2023-10-31T13:18:08;11.30;75.10
83104;DHT22;72975;48.134;11.630;2023-10-31T13:20:58;11.30;75.60
83104;DHT22;72975;48.134;11.630;2023-10-31T13:23:44;11.30;76.10
83104;DHT22;72975;48.134;11.630;2023-10-31T13:26:52;11.20;76.60
83104;DHT22;72975;48.134;11.630;2023-10-31T13:29:47;11.10;78.80
83104;DHT22;72975;48.134;11.630;2023-10-31T13:32:53;11.00;80.00
83104;DHT22;72975;48.134;11.630;2023-10-31T13:35:39;11.00;80.00
83104;DHT22;72975;48.134;11.630;2023-10-31T13:38:16;11.00;80.80
83104;DHT22;72975;48.134;11.630;2023-10-31T13:40:55;10.90;81.40
83104;DHT22;72975;48.134;11.630;2023-10-31T13:43:46;10.80;81.20
83104;DHT22;72975;48.134;11.630;2023-10-31T13:47:04;10.70;81.30
83104;DHT22;72975;48.134;11.630;2023-10-31T13:49:58;10.60;82.20
83104;DHT22;72975;48.134;11.630;2023-10-31T13:53:00;10.70;82.30
83104;DHT22;72975;48.134;11.630;2023-10-31T13:55:58;10.70;81.90
83104;DHT22;72975;48.134;11.630;2023-10-31T13:59:12;10.70;81.70
83104;DHT22;72975;48.134;11.630;2023-10-31T14:02:39;10.70;81.90
83104;DHT22;72975;48.134;11.630;2023-10-31T14:05:20;10.80;81.70
83104;DHT22;72975;48.134;11.630;2023-10-31T14:07:56;10.80;81.30
83104;DHT22;72975;48.134;11.630;2023-10-31T14:10:32;10.90;81.60
83104;DHT22;72975;48.134;11.630;2023-10-31T14:13:23;10.80;81.80
83104;DHT22;72975;48.134;11.630;2023-10-31T14:16:19;10.80;81.90
83104;DHT22;72975;48.134;11.630;2023-10-31T14:18:48;10.90;81.60
83104;DHT22;72975;48.134;11.630;2023-10-31T14:21:40;10.80;80.50
83104;DHT22;72975;48.134;11.630;2023-10-31T14:24:33;10.80;80.60
83104;DHT22;72975;48.134;11.630;2023-10-31T14:27:33;10.80;81.20
83104;DHT22;72975;48.134;11.630;2023-10-31T14:30:05;10.90;80.40
83104;DHT22;72975;48.134;11.630;2023-10-31T14:32:38;10.80;80.50
83104;DHT22;72975;48.134;11.630;2023-10-31T14:35:29;10.90;80.60
83104;DHT22;72975;48.134;11.630;2023-10-31T14:38:33;10.80;80.50
83104;DHT22;72975;48.134;11.630;2023-10-31T14:41:22;10.80;80.60
83104;DHT22;72975;48.134;11.630;2023-10-31T14:44:00;10.80;81.10
83104;DHT22;72975;48.134;11.630;2023-10-31T14:46:43;10.80;81.30
83104;DHT22;72975;48.134;11.630;2023-10-31T14:49:20;10.80;81.50
83104;DHT22;72975;48.134;11.630;2023-10-31T14:52:20;10.80;81.00
83104;DHT22;72975;48.134;11.630;2023-10-31T14:58:05;10.80;82.00
83104;DHT22;72975;48.134;11.630;2023-10-31T15:00:44;10.80;82.20
83104;DHT22;72975;48.134;11.630;2023-10-31T15:03:26;10.70;82.60
83104;DHT22;72975;48.134;11.630;2023-10-31T15:06:02;10.60;83.10
83104;DHT22;72975;48.134;11.630;2023-10-31T15:08:29;10.50;83.40
83104;DHT22;72975;48.134;11.630;2023-10-31T15:10:56;10.60;83.60
83104;DHT22;72975;48.134;11.630;2023-10-31T15:13:24;10.60;83.40
83104;DHT22;72975;48.134;11.630;2023-10-31T15:15:51;10.60;83.80
83104;DHT22;72975;48.134;11.630;2023-10-31T15:18:19;10.60;83.60
83104;DHT22;72975;48.134;11.630;2023-10-31T15:20:54;10.70;83.20
83104;DHT22;72975;48.134;11.630;2023-10-31T15:26:02;10.70;83.20
83104;DHT22;72975;48.134;11.630;2023-10-31T15:28:50;10.70;83.10
83104;DHT22;72975;48.134;11.630;2023-10-31T15:31:36;10.60;83.50
83104;DHT22;72975;48.134;11.630;2023-10-31T15:34:25;10.50;83.40
83104;DHT22;72975;48.134;11.630;2023-10-31T15:36:57;10.60;83.20
83104;DHT22;72975;48.134;11.630;2023-10-31T15:39:37;10.60;82.90
83104;DHT22;72975;48.134;11.630;2023-10-31T15:42:18;10.60;82.70
83104;DHT22;72975;48.134;11.630;2023-10-31T15:45:08;10.70;82.90
83104;DHT22;72975;48.134;11.630;2023-10-31T15:47:36;10.60;83.10
83104;DHT22;72975;48.134;11.630;2023-10-31T15:50:20;10.60;82.80
83104;DHT22;72975;48.134;11.630;2023-10-31T15:53:22;10.60;82.60
83104;DHT22;72975;48.134;11.630;2023-10-31T15:56:03;10.50;82.60
83104;DHT22;72975;48.134;11.630;2023-10-31T15:58:57;10.50;82.60
83104;DHT22;72975;48.134;11.630;2023-10-31T16:01:29;10.50;82.50
83104;DHT22;72975;48.134;11.630;2023-10-31T16:04:02;10.40;82.50
83104;DHT22;72975;48.134;11.630;2023-10-31T16:06:35;10.40;82.90
83104;DHT22;72975;48.134;11.630;2023-10-31T16:09:06;10.40;82.80
83104;DHT22;72975;48.134;11.630;2023-10-31T16:11:39;10.30;82.70
83104;DHT22;72975;48.134;11.630;2023-10-31T16:14:12;10.40;82.80
83104;DHT22;72975;48.134;11.630;2023-10-31T16:16:51;10.30;83.10
83104;DHT22;72975;48.134;11.630;2023-10-31T16:19:50;10.20;82.70
83104;DHT22;72975;48.134;11.630;2023-10-31T16:22:22;10.20;82.90
83104;DHT22;72975;48.134;11.630;2023-10-31T16:24:52;10.20;82.70
83104;DHT22;72975;48.134;11.630;2023-10-31T16:27:24;10.20;82.20
83104;DHT22;72975;48.134;11.630;2023-10-31T16:30:00;10.20;82.70
83104;DHT22;72975;48.134;11.630;2023-10-31T16:33:03;10.20;82.40
83104;DHT22;72975;48.134;11.630;2023-10-31T16:36:07;10.20;82.80
83104;DHT22;72975;48.134;11.630;2023-10-31T16:38:51;10.10;82.70
83104;DHT22;72975;48.134;11.630;2023-10-31T16:41:32;10.10;82.50
83104;DHT22;72975;48.134;11.630;2023-10-31T16:44:11;10.10;82.50
83104;DHT22;72975;48.134;11.630;2023-10-31T16:46:45;10.00;82.40
83104;DHT22;72975;48.134;11.630;2023-10-31T16:49:17;10.00;82.00
83104;DHT22;72975;48.134;11.630;2023-10-31T16:51:59;10.00;82.10
83104;DHT22;72975;48.134;11.630;2023-10-31T16:54:42;10.00;82.30
83104;DHT22;72975;48.134;11.630;2023-10-31T16:57:21;10.00;82.60
83104;DHT22;72975;48.134;11.630;2023-10-31T17:00:10;9.90;82.70
83104;DHT22;72975;48.134;11.630;2023-10-31T17:02:55;9.90;82.30
83104;DHT22;72975;48.134;11.630;2023-10-31T17:05:33;9.90;82.60
83104;DHT22;72975;48.134;11.630;2023-10-31T17:08:11;9.90;82.80
83104;DHT22;72975;48.134;11.630;2023-10-31T17:10:42;9.90;83.30
83104;DHT22;72975;48.134;11.630;2023-10-31T17:13:21;9.90;82.90
83104;DHT22;72975;48.134;11.630;2023-10-31T17:15:48;9.90;82.80
83104;DHT22;72975;48.134;11.630;2023-10-31T17:18:19;10.00;82.60
83104;DHT22;72975;48.134;11.630;2023-10-31T17:20:46;9.90;82.80
83104;DHT22;72975;48.134;11.630;2023-10-31T17:23:14;9.90;82.70
83104;DHT22;72975;48.134;11.630;2023-10-31T17:25:47;10.00;82.50
83104;DHT22;72975;48.134;11.630;2023-10-31T17:28:15;9.90;82.70
83104;DHT22;72975;48.134;11.630;2023-10-31T17:30:43;9.90;82.70
83104;DHT22;72975;48.134;11.630;2023-10-31T17:33:28;9.90;82.70
83104;DHT22;72975;48.134;11.630;2023-10-31T17:36:00;9.90;82.50
83104;DHT22;72975;48.134;11.630;2023-10-31T17:39:13;10.00;82.30
83104;DHT22;72975;48.134;11.630;2023-10-31T17:41:43;10.00;82.10